Time;durP1;ratioP1;P1;durP2;ratioP2;P2;SDS_P1;SDS_P2;PMS_P1;PMS_P2;Temp;Humidity;BMP_temperature;BMP_pressure;BME280_temperature;BME280_humidity;BME280_pressure;Samples;Min_cycle;Max_cycle;Signal;HPM_P1;HPM_P2
2021/11/08 00:01:46;;;;;;;7.17;2.80;;;;;;;7.63;80.66;100405.67;1682420;85;21048;-84
2021/11/08 00:04:10;;;;;;;10.30;3.30;;;;;;;7.59;80.68;100403.37;1681863;85;21131;-84
2021/11/08 00:06:37;;;;;;;6.80;2.90;;;;;;;7.53;80.59;100401.88;1680586;83;21821;-84
2021/11/08 00:09:05;;;;;;;7.70;3.42;;;;;;;7.45;80.47;100406.00;1679285;85;21271;-84
2021/11/08 00:11:36;;;;;;;11.45;3.58;;;;;;;7.34;80.44;100408.27;1679290;85;21111;-84
2021/11/08 00:14:03;;;;;;;10.98;4.00;;;;;;;7.24;80.42;100403.98;1679422;85;21099;-83
2021/11/08 00:16:42;;;;;;;8.25;3.17;;;;;;;7.13;80.50;100403.22;1679516;85;21083;-85
2021/11/08 00:19:30;;;;;;;8.75;3.50;;;;;;;7.04;80.58;100402.91;1677768;85;22594;-82
2021/11/08 00:21:46;;;;;;;10.68;3.70;;;;;;;6.95;80.64;100409.14;1698929;82;21550;-84
2021/11/08 00:24:16;;;;;;;10.80;3.67;;;;;;;6.86;80.71;100405.78;1649057;85;21090;-83
2021/11/08 00:26:45;;;;;;;9.78;3.62;;;;;;;6.79;80.85;100408.62;1699977;83;21580;-83
2021/11/08 00:29:15;;;;;;;10.82;3.25;;;;;;;6.73;80.90;100410.12;1684749;84;21132;-83
2021/11/08 00:31:41;;;;;;;9.13;3.45;;;;;;;6.68;81.01;100412.59;1701216;84;21889;-83
2021/11/08 00:34:08;;;;;;;14.00;4.17;;;;;;;6.61;81.07;100408.85;1710885;83;21078;-83
2021/11/08 00:36:35;;;;;;;12.70;4.12;;;;;;;6.56;81.07;100421.29;1710838;83;21118;-83
2021/11/08 00:39:02;;;;;;;17.15;5.12;;;;;;;6.51;81.20;100422.41;1710648;83;21054;-83
2021/11/08 00:41:34;;;;;;;19.02;6.10;;;;;;;6.47;81.24;100422.27;1710120;83;21654;-83
2021/11/08 00:43:59;;;;;;;18.35;6.22;;;;;;;6.42;81.41;100416.88;1710289;83;21926;-83
2021/11/08 00:46:26;;;;;;;9.40;4.03;;;;;;;6.42;81.55;100415.15;1710788;83;21106;-84
2021/11/08 00:48:54;;;;;;;17.40;6.35;;;;;;;6.40;81.62;100418.12;1710889;83;21093;-83
2021/11/08 00:51:21;;;;;;;12.13;5.42;;;;;;;6.40;81.68;100417.22;1710871;83;21080;-84
2021/11/08 00:53:49;;;;;;;13.60;4.78;;;;;;;6.37;81.79;100413.20;1711059;83;21011;-83
2021/11/08 00:56:21;;;;;;;19.90;4.42;;;;;;;6.41;81.79;100426.42;1683725;83;21530;-84
2021/11/08 00:58:48;;;;;;;12.28;5.78;;;;;;;6.46;82.00;100430.92;1711013;83;21246;-84
2021/11/08 01:01:20;;;;;;;16.17;5.95;;;;;;;6.54;82.25;100430.80;1710864;83;21592;-84
2021/11/08 01:03:46;;;;;;;12.13;4.80;;;;;;;6.59;82.14;100442.33;1710670;83;21090;-84
2021/11/08 01:06:15;;;;;;;12.13;3.95;;;;;;;6.59;81.99;100442.33;1711229;83;21552;-84
2021/11/08 01:08:42;;;;;;;16.27;6.33;;;;;;;6.55;81.82;100443.95;1713520;83;21781;-82
2021/11/08 01:11:12;;;;;;;12.23;4.20;;;;;;;6.54;81.90;100453.91;1713188;83;21117;-82
2021/11/08 01:13:39;;;;;;;13.90;5.20;;;;;;;6.55;82.03;100457.02;1713523;83;21082;-83
2021/11/08 01:16:08;;;;;;;11.50;4.70;;;;;;;6.56;82.04;100458.78;1713502;83;21113;-83
2021/11/08 01:18:34;;;;;;;12.47;4.33;;;;;;;6.58;82.01;100460.16;1713766;83;21035;-84
2021/11/08 01:21:01;;;;;;;11.53;4.62;;;;;;;6.59;82.07;100457.59;1713749;83;21771;-84
2021/11/08 01:23:28;;;;;;;10.00;4.47;;;;;;;6.61;82.05;100458.97;1713793;83;21055;-83
2021/11/08 01:26:00;;;;;;;10.05;4.10;;;;;;;6.58;81.88;100459.72;1713518;83;21679;-83
2021/11/08 01:28:33;;;;;;;13.03;4.28;;;;;;;6.54;81.86;100465.69;1675978;83;21073;-83
2021/11/08 01:30:55;;;;;;;10.48;3.98;;;;;;;6.51;81.92;100463.37;1713099;83;21058;-82
2021/11/08 01:33:23;;;;;;;12.18;5.15;;;;;;;6.55;82.21;100470.48;1713800;83;21845;-85
2021/11/08 01:36:08;;;;;;;9.40;4.28;;;;;;;6.59;82.28;100469.36;1713516;83;21094;-83
2021/11/08 01:38:26;;;;;;;14.58;4.30;;;;;;;6.66;82.38;100473.08;1711460;83;21035;-84
2021/11/08 01:40:52;;;;;;;12.93;4.28;;;;;;;6.73;82.45;100480.31;1713625;83;21160;-83
2021/11/08 01:43:23;;;;;;;14.18;5.20;;;;;;;6.81;82.43;100484.12;1713773;83;21110;-84
2021/11/08 01:45:50;;;;;;;12.60;4.00;;;;;;;6.86;82.37;100480.77;1713954;83;21684;-84
2021/11/08 01:48:17;;;;;;;12.30;4.03;;;;;;;6.91;82.32;100487.06;1713885;83;21615;-85
2021/11/08 01:50:43;;;;;;;15.48;4.15;;;;;;;6.94;82.33;100480.61;1713888;83;21030;-84
2021/11/08 01:53:11;;;;;;;11.25;4.95;;;;;;;7.01;82.31;100480.00;1713927;83;21035;-84
2021/11/08 01:55:37;;;;;;;11.97;4.92;;;;;;;7.08;82.34;100485.04;1713945;83;21149;-83
2021/11/08 01:58:05;;;;;;;14.63;4.90;;;;;;;7.15;82.34;100483.98;1713893;83;22591;-83
2021/11/08 02:00:32;;;;;;;11.63;3.98;;;;;;;7.24;82.36;100492.98;1713696;83;21523;-81
2021/11/08 02:03:02;;;;;;;13.45;4.90;;;;;;;7.32;82.31;100491.11;1713703;83;21046;-84
2021/11/08 02:05:29;;;;;;;10.20;4.12;;;;;;;7.39;82.14;100498.34;1713599;83;21528;-83
2021/11/08 02:07:56;;;;;;;14.70;4.40;;;;;;;7.44;82.02;100505.03;1713226;83;21509;-83
2021/11/08 02:10:27;;;;;;;13.88;6.80;;;;;;;7.47;81.85;100509.07;1713478;83;21874;-83
2021/11/08 02:12:53;;;;;;;19.42;5.12;;;;;;;7.47;81.76;100509.07;1713432;83;21559;-84
2021/11/08 02:15:20;;;;;;;22.90;7.75;;;;;;;7.51;81.82;100512.69;1713807;83;21077;-84
2021/11/08 02:17:48;;;;;;;28.85;12.35;;;;;;;7.58;81.91;100510.32;1713571;83;21093;-84
2021/11/08 02:20:26;;;;;;;27.85;10.53;;;;;;;7.68;81.89;100510.63;1713522;83;21042;-84
2021/11/08 02:22:56;;;;;;;47.95;18.77;;;;;;;7.74;81.79;100514.75;1713296;83;21891;-82
2021/11/08 02:25:24;;;;;;;23.30;9.38;;;;;;;7.83;81.82;100512.42;1713620;83;21412;-83
2021/11/08 02:27:51;;;;;;;25.23;8.30;;;;;;;7.89;81.72;100517.86;1713620;83;21011;-80
2021/11/08 02:30:20;;;;;;;75.55;27.45;;;;;;;7.97;81.63;100523.34;1713638;83;21566;-83
2021/11/08 02:32:47;;;;;;;25.50;8.63;;;;;;;8.04;81.55;100529.68;1713534;83;21081;-84
2021/11/08 02:35:16;;;;;;;54.48;21.85;;;;;;;8.09;81.47;100525.45;1688342;83;21759;-83
2021/11/08 02:37:45;;;;;;;45.50;19.02;;;;;;;8.14;81.37;100527.38;1713227;83;21061;-83
2021/11/08 02:40:23;;;;;;;19.05;9.45;;;;;;;8.18;81.24;100530.58;1669648;85;21064;-83
2021/11/08 02:42:52;;;;;;;19.30;10.05;;;;;;;8.23;81.20;100534.64;1640914;86;21856;-84
2021/11/08 02:45:22;;;;;;;17.57;8.38;;;;;;;8.27;81.10;100540.45;1641170;86;21108;-83
2021/11/08 02:47:49;;;;;;;14.23;5.92;;;;;;;8.32;81.05;100539.29;1641069;86;21860;-84
2021/11/08 02:50:18;;;;;;;27.67;12.82;;;;;;;8.35;81.04;100542.91;1640952;87;21140;-84
2021/11/08 02:52:45;;;;;;;16.70;7.17;;;;;;;8.40;80.94;100544.34;1641174;87;21100;-84
2021/11/08 02:55:15;;;;;;;29.80;11.97;;;;;;;8.42;80.88;100549.23;1641051;87;21113;-84
2021/11/08 02:57:41;;;;;;;15.20;5.47;;;;;;;8.45;80.87;100553.28;1641235;86;21728;-85
2021/11/08 03:00:12;;;;;;;13.72;7.95;;;;;;;8.49;80.84;100559.08;1641203;86;22432;-85
2021/11/08 03:02:40;;;;;;;14.87;6.60;;;;;;;8.50;80.78;100552.09;1641421;86;21087;-84
2021/11/08 03:05:09;;;;;;;16.40;8.65;;;;;;;8.51;80.74;100557.82;1641319;86;21095;-83
2021/11/08 03:07:41;;;;;;;20.20;8.60;;;;;;;8.52;80.71;100555.65;1641993;85;21098;-83
2021/11/08 03:10:10;;;;;;;14.07;5.78;;;;;;;8.53;80.74;100564.88;1670535;85;21105;-84
2021/11/08 03:12:38;;;;;;;12.10;6.00;;;;;;;8.54;80.66;100567.11;1671547;85;21211;-85
2021/11/08 03:15:09;;;;;;;7.97;3.37;;;;;;;8.52;80.59;100569.67;1713565;83;21035;-85
2021/11/08 03:17:45;;;;;;;14.05;6.12;;;;;;;8.52;80.61;100573.61;1701680;83;21037;-85
2021/11/08 03:20:16;;;;;;;15.85;6.85;;;;;;;8.50;80.58;100575.30;1669825;85;21083;-83
2021/11/08 03:22:49;;;;;;;14.15;6.17;;;;;;;8.49;80.53;100573.51;1671509;85;21724;-83
2021/11/08 03:25:16;;;;;;;11.60;6.00;;;;;;;8.46;80.52;100581.27;1700271;84;22571;-84
2021/11/08 03:27:51;;;;;;;10.78;4.70;;;;;;;8.44;80.46;100584.70;1712929;83;21050;-83
2021/11/08 03:30:26;;;;;;;23.30;10.58;;;;;;;8.40;80.42;100594.60;1713540;83;21344;-83
2021/11/08 03:32:56;;;;;;;10.72;5.00;;;;;;;8.32;80.33;100600.48;1688710;83;21183;-83
2021/11/08 03:35:28;;;;;;;10.93;5.83;;;;;;;8.25;80.36;100593.70;1713950;83;21144;-83
2021/11/08 03:37:55;;;;;;;11.35;5.75;;;;;;;8.22;80.44;100606.30;1700943;84;21866;-83
2021/11/08 03:40:32;;;;;;;13.18;6.97;;;;;;;8.18;80.42;100609.64;1713800;83;21813;-83
2021/11/08 03:43:00;;;;;;;12.95;6.20;;;;;;;8.12;80.37;100608.13;1713789;83;21081;-83
2021/11/08 03:45:34;;;;;;;14.18;7.45;;;;;;;8.04;80.30;100608.32;1713574;83;21081;-85
2021/11/08 03:48:02;;;;;;;14.25;6.95;;;;;;;7.91;80.12;100610.52;1700814;83;21607;-84
2021/11/08 03:50:31;;;;;;;12.37;4.20;;;;;;;7.76;80.06;100612.20;1713842;83;21802;-85
2021/11/08 03:52:58;;;;;;;13.48;6.47;;;;;;;7.60;80.14;100613.81;1713628;83;21187;-86
2021/11/08 03:55:25;;;;;;;16.75;8.08;;;;;;;7.50;80.24;100618.27;1713542;83;21065;-86
2021/11/08 03:57:55;;;;;;;11.15;4.75;;;;;;;7.37;80.22;100615.63;1713666;83;21805;-86
2021/11/08 04:00:23;;;;;;;11.05;5.65;;;;;;;7.25;80.35;100613.90;1713340;83;21082;-86
2021/11/08 04:02:54;;;;;;;12.85;6.03;;;;;;;7.15;80.43;100619.19;1713600;83;21830;-86
2021/11/08 04:05:19;;;;;;;13.83;6.90;;;;;;;7.04;80.51;100620.52;1712801;83;21070;-86
2021/11/08 04:07:47;;;;;;;12.98;6.40;;;;;;;6.94;80.66;100616.67;1713327;83;21069;-85
2021/11/08 04:10:14;;;;;;;14.05;7.58;;;;;;;6.86;80.86;100625.97;1713381;83;21497;-85
2021/11/08 04:12:42;;;;;;;10.78;5.97;;;;;;;6.78;81.00;100621.77;1713635;83;21078;-83
2021/11/08 04:15:17;;;;;;;9.80;5.05;;;;;;;6.72;81.18;100627.65;1713762;83;21782;-85
2021/11/08 04:17:44;;;;;;;9.30;4.80;;;;;;;6.68;81.29;100630.98;1713044;83;21383;-83
2021/11/08 04:20:18;;;;;;;9.85;4.45;;;;;;;6.64;81.56;100626.87;1713498;83;21074;-83
2021/11/08 04:22:51;;;;;;;;;;;;;;;6.67;81.82;100640.95;1715567;83;21128;-83
2021/11/08 04:25:22;;;;;;;9.25;4.87;;;;;;;6.70;82.04;100638.87;1713548;82;20200;-83
2021/11/08 04:27:47;;;;;;;9.80;4.25;;;;;;;6.73;82.10;100636.38;1712607;83;21082;-83
2021/11/08 04:30:14;;;;;;;7.80;4.12;;;;;;;6.76;82.25;100641.31;1713772;83;21548;-83
2021/11/08 04:35:32;;;;;;;7.67;4.05;;;;;;;6.87;82.34;100647.36;1713688;83;21034;-83
2021/11/08 04:51:51;;;;;;;9.33;5.67;;;;;;;6.87;82.63;100667.91;1713525;83;21034;-84
2021/11/08 04:57:16;;;;;;;8.95;4.28;;;;;;;6.90;82.61;100661.45;1638440;87;21122;-80
2021/11/08 05:21:47;;;;;;;5.53;2.80;;;;;;;6.81;82.66;100696.03;1697524;83;22047;-78
2021/11/08 05:32:31;;;;;;;4.40;2.65;;;;;;;6.72;83.22;100708.73;1696508;83;21019;-75
2021/11/08 05:34:58;;;;;;;7.17;2.90;;;;;;;6.76;83.29;100708.03;1703398;83;21680;-75
2021/11/08 05:37:26;;;;;;;3.75;2.60;;;;;;;6.84;83.46;100713.98;1696273;83;21062;-77
2021/11/08 05:39:57;;;;;;;4.58;2.02;;;;;;;6.91;83.49;100710.78;1694262;84;21145;-75
2021/11/08 05:42:24;;;;;;;5.00;1.70;;;;;;;6.97;83.48;100719.74;1697337;83;21068;-75
2021/11/08 05:44:51;;;;;;;2.62;1.60;;;;;;;7.01;83.40;100721.64;1697493;83;21616;-75
2021/11/08 05:47:21;;;;;;;2.60;1.70;;;;;;;7.05;83.31;100729.63;1697431;83;22352;-73
2021/11/08 05:49:47;;;;;;;5.65;2.12;;;;;;;7.06;83.18;100738.85;1697276;83;21081;-73
2021/11/08 05:52:14;;;;;;;5.33;2.83;;;;;;;7.05;83.09;100734.86;1697389;83;21706;-76
2021/11/08 05:54:43;;;;;;;5.50;2.98;;;;;;;7.05;83.10;100741.41;1683360;83;21332;-79
2021/11/08 06:49:40;;;;;;;12.00;5.20;;;;;;;8.54;82.65;100822.47;1694530;84;21438;-75
2021/11/08 06:52:07;;;;;;;11.00;5.90;;;;;;;8.59;82.45;100830.48;1694026;83;21074;-75
2021/11/08 06:54:36;;;;;;;8.50;5.42;;;;;;;8.63;82.33;100831.05;1694851;83;21726;-74
2021/11/08 06:57:12;;;;;;;13.83;5.80;;;;;;;8.66;82.23;100825.92;1693936;83;21062;-75
2021/11/08 06:59:35;;;;;;;8.55;5.10;;;;;;;8.68;82.08;100838.67;1693905;83;21122;-74
2021/11/08 07:02:01;;;;;;;9.40;5.58;;;;;;;8.69;82.02;100841.78;1694403;83;21137;-75
2021/11/08 07:04:31;;;;;;;8.13;5.30;;;;;;;8.74;82.04;100847.17;1694538;84;21078;-74
2021/11/08 07:06:58;;;;;;;7.47;5.37;;;;;;;8.84;82.15;100859.78;1676018;84;21075;-74
2021/11/08 07:09:25;;;;;;;8.45;5.22;;;;;;;8.99;82.21;100860.72;1696671;82;21046;-75
2021/11/08 07:11:52;;;;;;;7.45;3.10;;;;;;;9.15;82.21;100859.47;1698040;84;21584;-75
2021/11/08 07:14:18;;;;;;;4.47;2.37;;;;;;;9.32;82.12;100861.32;1698071;83;21078;-76
2021/11/08 07:16:45;;;;;;;9.08;3.42;;;;;;;9.45;81.91;100864.80;1663530;86;21145;-75
2021/11/08 07:19:14;;;;;;;5.35;3.50;;;;;;;9.54;81.67;100868.16;1697765;83;21766;-75
2021/11/08 07:21:42;;;;;;;7.50;4.25;;;;;;;9.64;81.59;100869.32;1697569;83;21610;-75
2021/11/08 07:24:09;;;;;;;4.92;2.75;;;;;;;9.73;81.37;100872.23;1663857;85;21081;-76
2021/11/08 07:26:36;;;;;;;4.50;1.90;;;;;;;9.80;81.29;100877.23;1660920;85;21102;-75
2021/11/08 07:29:05;;;;;;;3.15;2.10;;;;;;;9.88;81.20;100881.00;1697611;84;21164;-75
2021/11/08 07:31:32;;;;;;;7.17;3.02;;;;;;;9.89;80.96;100880.14;1697979;83;21370;-75
2021/11/08 07:33:58;;;;;;;5.20;2.10;;;;;;;9.94;80.90;100891.70;1663276;85;21051;-76
2021/11/08 07:36:25;;;;;;;5.60;2.12;;;;;;;9.97;80.81;100902.31;1697840;83;21552;-76
2021/11/08 07:38:52;;;;;;;4.50;2.40;;;;;;;10.01;80.75;100900.67;1697606;83;21289;-76
2021/11/08 07:41:19;;;;;;;6.42;2.90;;;;;;;10.04;80.71;100905.61;1697502;83;21026;-76
2021/11/08 07:43:47;;;;;;;6.70;2.90;;;;;;;10.11;80.65;100906.66;1697536;84;21729;-75
2021/11/08 07:46:16;;;;;;;4.85;2.98;;;;;;;10.17;80.48;100914.72;1697515;83;21090;-76
2021/11/08 07:48:43;;;;;;;4.37;2.47;;;;;;;10.25;80.48;100913.66;1697544;83;21074;-76
2021/11/08 07:51:12;;;;;;;5.28;3.25;;;;;;;10.33;80.40;100924.00;1697561;83;21094;-76
2021/11/08 07:53:39;;;;;;;5.75;2.50;;;;;;;10.41;80.23;100919.83;1697545;83;21219;-76
2021/11/08 07:56:05;;;;;;;5.03;2.80;;;;;;;10.45;79.99;100926.08;1663789;86;21790;-76
2021/11/08 07:58:32;;;;;;;5.30;2.77;;;;;;;10.47;79.82;100929.64;1660658;85;21619;-76
2021/11/08 08:00:59;;;;;;;4.30;2.60;;;;;;;10.43;79.67;100939.19;1661154;85;21655;-75
2021/11/08 08:03:26;;;;;;;6.85;2.72;;;;;;;10.27;79.55;100949.67;1661075;85;21058;-75
2021/11/08 08:05:55;;;;;;;4.30;2.65;;;;;;;10.06;79.54;100964.40;1661204;86;21212;-76
2021/11/08 08:08:21;;;;;;;4.00;2.37;;;;;;;9.80;79.60;100963.98;1665743;84;21786;-75
2021/11/08 08:10:53;;;;;;;5.70;2.30;;;;;;;9.60;80.15;100967.31;1697047;84;21067;-75
2021/11/08 08:13:20;;;;;;;2.58;1.42;;;;;;;9.50;80.56;100974.90;1664245;85;21168;-76
2021/11/08 08:15:45;;;;;;;3.70;1.77;;;;;;;9.43;80.62;100979.47;1694567;84;21071;-75
2021/11/08 08:18:12;;;;;;;2.20;1.17;;;;;;;9.24;80.65;100979.28;1694543;83;21094;-75
2021/11/08 08:20:38;;;;;;;4.03;1.00;;;;;;;9.06;80.96;100966.83;1694444;84;21745;-75
2021/11/08 08:23:05;;;;;;;2.00;1.02;;;;;;;9.09;81.22;100990.14;1694238;83;21187;-75
2021/11/08 08:25:32;;;;;;;2.58;1.27;;;;;;;9.05;81.38;101004.02;1693948;84;21078;-75
2021/11/08 08:27:59;;;;;;;3.12;1.40;;;;;;;9.02;81.85;101005.20;1694164;83;21544;-75
2021/11/08 08:30:26;;;;;;;2.47;1.50;;;;;;;9.07;81.95;101014.15;1694207;83;21070;-76
2021/11/08 08:32:54;;;;;;;3.25;1.50;;;;;;;9.12;82.16;101024.80;1694361;83;21903;-75
2021/11/08 08:35:21;;;;;;;6.17;1.70;;;;;;;9.08;81.68;101024.22;1694471;84;21011;-75
2021/11/08 08:37:47;;;;;;;3.58;2.10;;;;;;;9.04;81.88;101027.16;1694389;84;21558;-76
2021/11/08 08:40:14;;;;;;;3.10;1.85;;;;;;;9.04;81.94;101043.34;1694223;83;21319;-75
2021/11/08 08:42:41;;;;;;;4.33;1.67;;;;;;;8.99;81.72;101048.45;1694430;84;21706;-75
2021/11/08 08:45:10;;;;;;;2.83;1.70;;;;;;;8.87;81.51;101055.43;1694299;83;21758;-76
2021/11/08 08:47:39;;;;;;;5.37;1.98;;;;;;;8.78;81.52;101057.72;1694360;83;21572;-76
2021/11/08 08:50:07;;;;;;;3.40;1.72;;;;;;;8.70;81.81;101057.43;1694246;83;21102;-75
2021/11/08 08:52:34;;;;;;;2.67;1.77;;;;;;;8.67;82.08;101062.58;1694371;83;21181;-75
2021/11/08 08:55:01;;;;;;;3.30;2.10;;;;;;;8.67;82.40;101070.45;1694412;84;21066;-75
2021/11/08 08:57:28;;;;;;;4.22;1.70;;;;;;;8.61;82.30;101068.89;1694329;84;21916;-75
2021/11/08 08:59:54;;;;;;;3.30;1.87;;;;;;;8.53;82.20;101082.14;1694284;84;21048;-76
2021/11/08 09:02:21;;;;;;;3.67;2.08;;;;;;;8.51;82.37;101090.38;1694380;84;21575;-75
2021/11/08 09:04:48;;;;;;;5.37;2.50;;;;;;;8.56;82.82;101088.84;1694252;84;21362;-75
2021/11/08 09:07:15;;;;;;;7.72;4.50;;;;;;;8.62;82.43;101102.18;1694398;84;21086;-75
2021/11/08 09:09:42;;;;;;;10.20;5.08;;;;;;;8.61;82.40;101109.56;1696278;83;21773;-75
2021/11/08 09:12:09;;;;;;;14.25;5.92;;;;;;;8.59;82.30;101116.48;1697803;84;21141;-76
2021/11/08 09:14:37;;;;;;;21.12;10.18;;;;;;;8.55;82.03;101110.64;1698094;83;21603;-76
2021/11/08 09:17:04;;;;;;;20.75;9.30;;;;;;;8.56;82.23;101115.96;1697912;83;21097;-75
2021/11/08 09:19:31;;;;;;;4.55;2.58;;;;;;;8.66;82.25;101118.94;1697990;83;21038;-76
2021/11/08 09:21:58;;;;;;;4.97;2.52;;;;;;;8.72;82.15;101121.80;1697983;83;21757;-75
2021/11/08 09:24:25;;;;;;;4.17;2.10;;;;;;;8.80;82.17;101122.97;1697851;84;21552;-75
2021/11/08 09:26:51;;;;;;;4.65;1.90;;;;;;;8.89;82.01;101121.13;1698100;83;21101;-76
2021/11/08 09:29:18;;;;;;;4.50;2.20;;;;;;;8.93;82.10;101126.95;1698128;83;21210;-76
2021/11/08 09:31:45;;;;;;;4.47;2.25;;;;;;;9.05;82.01;101132.69;1698114;84;21094;-76
2021/11/08 09:34:15;;;;;;;4.35;1.62;;;;;;;9.15;82.15;101141.36;1698120;83;22896;-76
2021/11/08 09:36:41;;;;;;;3.98;1.77;;;;;;;9.26;81.33;101139.14;1697933;83;21083;-75
2021/11/08 09:39:24;;;;;;;4.10;1.98;;;;;;;9.27;80.82;101140.95;1697910;84;21071;-75
2021/11/08 09:41:49;;;;;;;4.60;1.98;;;;;;;9.38;81.34;101145.25;1697837;83;21051;-74
2021/11/08 09:44:16;;;;;;;6.25;1.85;;;;;;;9.62;81.24;101142.61;1697981;84;21086;-75
2021/11/08 09:46:43;;;;;;;4.95;2.15;;;;;;;9.79;80.46;101144.94;1697820;84;21913;-74
2021/11/08 09:49:10;;;;;;;7.37;2.40;;;;;;;9.83;80.27;101146.39;1697828;83;21117;-75
2021/11/08 09:51:41;;;;;;;6.35;2.25;;;;;;;9.94;79.92;101153.34;1697856;83;21635;-74
2021/11/08 09:54:10;;;;;;;3.75;1.70;;;;;;;9.92;79.51;101172.13;1697786;83;21085;-75
2021/11/08 09:56:39;;;;;;;3.60;1.92;;;;;;;9.78;79.01;101178.23;1697901;83;21183;-75
2021/11/08 09:59:06;;;;;;;3.98;1.85;;;;;;;9.62;78.98;101172.83;1697034;83;21769;-74
2021/11/08 10:01:36;;;;;;;5.10;2.22;;;;;;;9.51;79.30;101172.86;1697815;83;21047;-74
2021/11/08 10:04:03;;;;;;;5.85;2.25;;;;;;;9.50;79.35;101180.30;1697879;83;21619;-75
2021/11/08 10:06:31;;;;;;;9.05;2.25;;;;;;;9.44;79.68;101180.05;1697858;83;21219;-74
2021/11/08 10:08:59;;;;;;;4.50;2.10;;;;;;;9.43;79.63;101186.16;1698003;83;21094;-74
2021/11/08 10:11:26;;;;;;;5.37;1.80;;;;;;;9.34;79.42;101184.96;1697659;84;22052;-74
2021/11/08 10:13:53;;;;;;;4.28;2.30;;;;;;;9.30;79.36;101187.00;1683580;84;21125;-74
2021/11/08 10:16:28;;;;;;;3.83;1.90;;;;;;;9.22;79.49;101190.20;1697861;83;21023;-74
2021/11/08 10:18:57;;;;;;;3.37;1.70;;;;;;;9.22;79.67;101196.77;1697934;83;21153;-75
2021/11/08 10:21:34;;;;;;;4.45;2.15;;;;;;;9.22;79.86;101206.85;1698072;83;21074;-75
2021/11/08 10:24:05;;;;;;;4.03;1.45;;;;;;;9.32;80.04;101210.71;1697941;83;22598;-75
2021/11/08 10:26:34;;;;;;;4.62;1.72;;;;;;;9.30;79.68;101216.33;1697883;83;21125;-75
2021/11/08 10:29:15;;;;;;;3.83;1.70;;;;;;;9.29;79.85;101218.47;1697830;83;21572;-75
2021/11/08 10:31:54;;;;;;;6.05;1.77;;;;;;;9.27;79.79;101221.06;1697784;83;21058;-75
2021/11/08 10:34:21;;;;;;;4.83;1.70;;;;;;;9.33;80.04;101226.97;1697770;83;21066;-75
2021/11/08 10:37:01;;;;;;;3.30;1.77;;;;;;;9.42;79.92;101230.34;1683734;84;21841;-75
2021/11/08 10:39:31;;;;;;;11.12;2.47;;;;;;;9.40;79.56;101236.84;1697835;83;21062;-75
2021/11/08 10:41:57;;;;;;;3.12;1.60;;;;;;;9.39;79.41;101239.02;1697822;83;21070;-75
2021/11/08 10:44:24;;;;;;;3.98;1.90;;;;;;;9.36;79.48;101240.20;1697866;83;21098;-75
2021/11/08 10:47:04;;;;;;;5.87;1.92;;;;;;;9.38;79.42;101237.20;1698021;83;21105;-75
2021/11/08 10:49:37;;;;;;;5.37;1.90;;;;;;;9.39;79.21;101252.14;1695139;83;21740;-75
2021/11/08 10:52:05;;;;;;;4.92;1.92;;;;;;;9.42;79.45;101247.41;1698451;84;21121;-75
2021/11/08 10:54:36;;;;;;;3.15;1.30;;;;;;;9.47;79.19;101255.95;1698293;83;21614;-75
2021/11/08 10:57:11;;;;;;;3.42;1.42;;;;;;;9.45;79.19;101257.63;1698127;83;21296;-75
2021/11/08 10:59:48;;;;;;;7.12;2.58;;;;;;;9.50;79.16;101257.81;1698026;83;22193;-75
2021/11/08 11:02:14;;;;;;;5.03;1.50;;;;;;;9.53;79.14;101260.14;1696940;83;21768;-75
2021/11/08 11:04:46;;;;;;;5.62;2.45;;;;;;;9.55;78.87;101268.05;1697907;83;21109;-75
2021/11/08 11:07:26;;;;;;;3.47;1.47;;;;;;;9.50;78.84;101281.47;1697885;84;21101;-75
2021/11/08 11:10:04;;;;;;;3.52;1.70;;;;;;;9.38;78.65;101284.50;1696567;83;21137;-75
2021/11/08 11:12:31;;;;;;;4.22;1.30;;;;;;;9.22;78.75;101279.08;1687116;84;21082;-75
2021/11/08 11:15:06;;;;;;;3.58;2.30;;;;;;;9.02;78.61;101294.05;1694337;83;21783;-75
2021/11/08 11:17:42;;;;;;;16.70;12.43;;;;;;;8.82;78.75;101296.28;1694356;84;21524;-75
2021/11/08 11:20:18;;;;;;;3.90;2.35;;;;;;;8.65;79.25;101303.46;1694737;84;21071;-75
2021/11/08 11:22:55;;;;;;;7.33;3.95;;;;;;;8.59;79.59;101300.59;1694354;83;21090;-75
2021/11/08 11:25:18;;;;;;;4.57;2.60;;;;;;;8.56;79.87;101314.06;1692797;84;21078;-75
2021/11/08 11:27:50;;;;;;;6.75;2.60;;;;;;;8.54;79.92;101317.05;1694709;83;22582;-75
2021/11/08 11:30:24;;;;;;;7.50;3.27;;;;;;;8.47;79.81;101324.59;1694571;84;21158;-75
2021/11/08 11:33:11;;;;;;;4.00;2.20;;;;;;;8.36;79.93;101325.41;1694210;84;21395;-75
2021/11/08 11:35:55;;;;;;;5.03;2.37;;;;;;;8.30;80.04;101321.21;1694470;84;21742;-74
2021/11/08 11:38:30;;;;;;;10.43;2.87;;;;;;;8.30;80.10;101326.45;1694561;84;21591;-75
2021/11/08 11:41:09;;;;;;;6.87;2.02;;;;;;;8.36;80.38;101330.65;1694458;84;21710;-75
2021/11/08 11:44:03;;;;;;;5.67;2.30;;;;;;;8.45;80.43;101335.02;1694471;84;21082;-75
2021/11/08 11:46:32;;;;;;;3.95;1.70;;;;;;;8.66;80.94;101342.02;1694387;84;24996;-75
2021/11/08 11:49:03;;;;;;;4.05;1.98;;;;;;;8.68;80.03;101335.98;1694637;84;21133;-75
2021/11/08 11:51:44;;;;;;;6.90;3.15;;;;;;;8.68;80.00;101342.97;1694465;84;21105;-75
2021/11/08 11:54:12;;;;;;;6.45;2.67;;;;;;;8.67;79.77;101335.52;1693106;84;21206;-75
2021/11/08 11:56:44;;;;;;;9.05;4.22;;;;;;;8.65;79.90;101345.06;1694361;83;21647;-75
2021/11/08 11:59:12;;;;;;;8.55;2.00;;;;;;;8.71;80.12;101349.67;1694474;83;21081;-75
2021/11/08 12:01:39;;;;;;;7.53;3.00;;;;;;;8.66;79.82;101350.77;1694427;84;21157;-76
2021/11/08 12:04:06;;;;;;;7.95;4.25;;;;;;;8.67;80.05;101351.66;1694540;83;21066;-75
2021/11/08 12:06:37;;;;;;;5.05;2.37;;;;;;;8.70;80.09;101355.31;1694551;83;22566;-75
2021/11/08 12:09:09;;;;;;;6.05;2.67;;;;;;;8.77;79.98;101356.48;1694447;84;21078;-75
2021/11/08 12:11:45;;;;;;;6.62;3.72;;;;;;;8.84;79.94;101353.67;1694081;83;21058;-75
2021/11/08 12:14:16;;;;;;;6.78;2.90;;;;;;;8.93;79.65;101356.69;1694142;83;21153;-75
2021/11/08 12:16:57;;;;;;;7.78;2.08;;;;;;;9.05;79.63;101358.95;1694542;83;21089;-75
2021/11/08 12:19:26;;;;;;;5.33;1.80;;;;;;;9.12;79.36;101369.77;1694532;83;21826;-76
2021/11/08 12:21:53;;;;;;;7.83;2.52;;;;;;;9.18;79.17;101366.48;1694421;83;21086;-76
2021/11/08 12:24:29;;;;;;;8.20;2.42;;;;;;;9.21;78.91;101367.91;1694464;84;21122;-76
2021/11/08 12:27:09;;;;;;;6.03;2.42;;;;;;;9.24;78.76;101374.60;1694549;84;21070;-76
2021/11/08 12:29:51;;;;;;;3.60;1.98;;;;;;;9.22;78.24;101374.08;1694105;83;21129;-76
2021/11/08 12:32:18;;;;;;;6.37;2.20;;;;;;;9.19;78.09;101377.88;1693951;84;21676;-76
2021/11/08 12:34:54;;;;;;;5.83;2.45;;;;;;;9.12;78.11;101388.53;1694494;84;21438;-76
2021/11/08 12:37:18;;;;;;;6.58;2.98;;;;;;;9.12;78.16;101392.08;1694036;84;21086;-76
2021/11/08 12:39:59;;;;;;;7.30;2.22;;;;;;;9.12;77.80;101397.34;1694276;83;21078;-76
2021/11/08 12:42:42;;;;;;;6.03;2.65;;;;;;;9.09;78.04;101392.37;1694321;84;21219;-76
2021/11/08 12:45:26;;;;;;;7.60;2.65;;;;;;;9.10;77.79;101397.69;1694352;84;21717;-76
2021/11/08 12:48:09;;;;;;;5.03;2.72;;;;;;;9.09;77.73;101398.94;1693594;84;21139;-76
2021/11/08 12:50:43;;;;;;;9.73;3.10;;;;;;;9.00;77.48;101402.06;1694266;84;21654;-76
2021/11/08 12:53:24;;;;;;;7.00;2.87;;;;;;;8.90;77.53;101398.16;1694170;83;21106;-76
2021/11/08 12:55:50;;;;;;;4.90;2.80;;;;;;;8.89;77.62;101401.61;1692831;83;21187;-76
2021/11/08 12:58:17;;;;;;;6.60;2.75;;;;;;;8.86;77.58;101405.44;1694266;83;21128;-76
2021/11/08 13:00:50;;;;;;;7.50;3.02;;;;;;;8.79;77.47;101399.86;1694174;84;21567;-76
2021/11/08 13:03:19;;;;;;;6.47;2.45;;;;;;;8.79;77.54;101409.05;1693958;83;21191;-76
2021/11/08 13:05:47;;;;;;;5.05;2.60;;;;;;;8.69;77.18;101415.22;1692979;84;21067;-76
2021/11/08 13:08:26;;;;;;;7.35;2.92;;;;;;;8.64;77.46;101418.05;1697040;83;21150;-76
2021/11/08 13:11:10;;;;;;;9.63;4.65;;;;;;;8.66;77.59;101422.05;1696626;84;21812;-76
2021/11/08 13:13:35;;;;;;;8.65;5.10;;;;;;;8.66;77.65;101420.74;1696818;83;21064;-76
2021/11/08 13:16:07;;;;;;;9.30;4.12;;;;;;;8.66;77.58;101422.94;1696841;83;21111;-76
2021/11/08 13:18:44;;;;;;;6.92;2.80;;;;;;;8.68;77.53;101422.59;1664887;85;21083;-76
2021/11/08 13:21:22;;;;;;;7.53;3.27;;;;;;;8.64;77.16;101425.92;1694280;83;21105;-76
2021/11/08 13:23:53;;;;;;;16.55;11.12;;;;;;;8.62;76.99;101426.27;1693603;84;21757;-76